Bewolking Meer informatie Parkstad Weather Satellite


Neerslagradar Meer informatie Parkstad Rain Snow Radar


Onweersbuien Meer informatie Parkstad Lighntning


24/7 Weercamera Meer informatie Parkstad Weathercam


Natuurbrandrisico
CBI






Extreme hitte Van: 14-08-2020 07:00 tot: 23:00 Waarschuwing voor Parkstad (045): Extreme hitte  Niveau: Geel. info button
Onweer Van: 14-08-2020 13:00 tot: 21:00 Waarschuwing voor Parkstad (045): Onweer  Niveau: Geel. info button

METAR rapporten vliegvelden

   
EHBK - Beek Nederland
Gewijzigd: 14-08-2020 09:55
Gedeeltelijk bewolkt  
Gedeeltelijk bewolkt  
   Wind: ZZW 24.1 km/h
Wind: ZZW 24.1 km/h
Temperatuur: 24°C
Dauwpunt: 17°C
Vochtigheid: 65%
Barometer: 1013 hPa
Satelliet beelden: Gedeeltelijk bewolkt
Zicht: meer dan 10 km
Bewolking: Gedeeltelijk bewolkt
EHBK 140755Z AUTO 20013KT 170V230 9999 NSC 24/17 Q1013 NOSIG
EHBK - Maastricht Nederland
Gewijzigd: 14-08-2020 09:55
Gedeeltelijk bewolkt  
Gedeeltelijk bewolkt  
   Wind: ZZW 24.1 km/h
Wind: ZZW 24.1 km/h
Temperatuur: 24°C
Dauwpunt: 17°C
Vochtigheid: 65%
Barometer: 1013 hPa
Satelliet beelden: Gedeeltelijk bewolkt
Zicht: meer dan 10 km
Bewolking: Gedeeltelijk bewolkt
EHBK 140755Z AUTO 20013KT 170V230 9999 NSC 24/17 Q1013 NOSIG
EBLG - Liège België
Gewijzigd: 14-08-2020 09:50
Licht bewolkt  
Licht bewolkt  
   Wind: ZZW 24.1 km/h
Wind: ZZW 24.1 km/h
Temperatuur: 23°C
Dauwpunt: 16°C
Vochtigheid: 65%
Barometer: 1013 hPa
Satelliet beelden: Licht bewolkt
Zicht: meer dan 10 km
Bewolking: Licht bewolkt 762 m
EBLG 140750Z 21013KT 9999 FEW025 23/16 Q1013 NOSIG
EDDK - Köln/Bonn Duitsland
Gewijzigd: 14-08-2020 09:50
Helder  
Helder  
   Wind: ZZW 5.6 km/h
Wind: ZZW 5.6 km/h
Temperatuur: 24°C
Dauwpunt: 16°C
Vochtigheid: 61%
Barometer: 1013 hPa
Zicht: meer dan 10 km
Bewolking: Helder
EDDK 140750Z 21003KT 170V280 CAVOK 24/16 Q1013 NOSIG
EDDL - Düsseldorf Duitsland
Gewijzigd: 14-08-2020 09:50
Helder  
Helder  
   Wind: ZW 13 km/h
Wind: ZW 13 km/h
Temperatuur: 23°C
Dauwpunt: 18°C
Vochtigheid: 74%
Barometer: 1013 hPa
Zicht: meer dan 10 km
Bewolking: Helder
EDDL 140750Z 22007KT CAVOK 23/18 Q1013 NOSIG
EHEH - Eindhoven Nederland
Gewijzigd: 14-08-2020 09:55
Helder  
Helder  
   Wind: ZZW 13 km/h
Wind: ZZW 13 km/h
Temperatuur: 24°C
Dauwpunt: 19°C
Vochtigheid: 74%
Barometer: 1012 hPa
Satelliet beelden: Helder
Zicht: meer dan 10 km
Bewolking: Helder
EHEH 140755Z AUTO 21007KT 160V320 9999 NCD 24/19 Q1012 BLU NOSIG
ELLX - Luxemburg Luxemburg
Gewijzigd: 14-08-2020 09:50
Licht bewolkt  
Licht bewolkt  
   Wind: ZZW 11.1 km/h
Wind: ZZW 11.1 km/h
Temperatuur: 21°C
Dauwpunt: 16°C
Vochtigheid: 73%
Barometer: 1016 hPa
Satelliet beelden: Licht bewolkt
Zicht: meer dan 10 km
Bewolking: Licht bewolkt 457 m
ELLX 140750Z 21006KT 160V250 9999 FEW015 21/16 Q1016 NOSIG
EGLL - London England
Gewijzigd: 14-08-2020 09:50
Bewolking  
Bewolking  
   Wind: NNO 9.3 km/h
Wind: NNO 9.3 km/h
Temperatuur: 18°C
Dauwpunt: 16°C
Vochtigheid: 88%
Barometer: 1014 hPa
Satelliet beelden: Bewolking
Zicht: meer dan 10 km
Bewolking: Grotendeels bewolkt 244 m,
Bewolking 488 m,
Onweer
EGLL 140750Z AUTO 02005KT 350V070 9999 BKN008/// OVC016/// //////CB 18/16 Q1014
EBAW - Antwerpen België
Gewijzigd: 14-08-2020 09:50
Licht bewolkt  
Licht bewolkt  
   Wind: ZW 11.1 km/h
Wind: ZW 11.1 km/h
Temperatuur: 24°C
Dauwpunt: 17°C
Vochtigheid: 65%
Barometer: 1012 hPa
Satelliet beelden: Licht bewolkt
Zicht: meer dan 10 km
Bewolking: Licht bewolkt 732 m
EBAW 140750Z 22006KT 190V250 9999 FEW024 24/17 Q1012 NOSIG
EBOS - Oostende België
Gewijzigd: 14-08-2020 09:50
Nevel, Grotendeels bewolkt  
Nevel, Grotendeels bewolkt  
   Wind: NW 7.4 km/h
Wind: NW 7.4 km/h
Temperatuur: 20°C
Dauwpunt: 18°C
Vochtigheid: 88%
Barometer: 1013 hPa
Satelliet beelden: Grotendeels bewolkt
Zicht: 4 km
Bewolking: Licht bewolkt 152 m,
Grotendeels bewolkt 213 m
EBOS 140750Z 32004KT 290V350 3500 BR FEW005 BKN007 20/18 Q1013 BECMG 6000 NSW SCT007 SCT030
LEAL - La Nucia Spanje
Gewijzigd: 14-08-2020 10:00
Gedeeltelijk bewolkt  
Gedeeltelijk bewolkt  
   Wind: ONO 14.8 km/h
Wind: ONO 14.8 km/h
Temperatuur: 28°C
Gevoelstemperatuur: 31°C
Dauwpunt: 23°C
Vochtigheid: 74%
Barometer: 1014 hPa
Satelliet beelden: Gedeeltelijk bewolkt
Zicht: meer dan 10 km
Bewolking: Gedeeltelijk bewolkt 518 m
LEAL 140800Z 07008KT 030V090 9999 SCT017 28/23 Q1014 NOSIG
TNCA - Oranjestad Aruba
Gewijzigd: 14-08-2020 09:00
Gedeeltelijk bewolkt  
Gedeeltelijk bewolkt  
   Wind: Oosten 24.1 km/h
Wind: Oosten 24.1 km/h
Temperatuur: 28°C
Gevoelstemperatuur: 32°C
Dauwpunt: 24°C
Vochtigheid: 79%
Barometer: 1010 hPa
Satelliet beelden: Gedeeltelijk bewolkt
Zicht: meer dan 10 km
Bewolking: Gedeeltelijk bewolkt 549 m
TNCA 140700Z 10013KT 9999 SCT018 28/24 Q1010 NOSIG
TNCC - Willemstad Curacao
Gewijzigd: 14-08-2020 10:00
Gedeeltelijk bewolkt  
Gedeeltelijk bewolkt  
   Wind: OZO 14.8 km/h
Wind: OZO 14.8 km/h
Temperatuur: 28°C
Gevoelstemperatuur: 31°C
Dauwpunt: 23°C
Vochtigheid: 74%
Barometer: 1009 hPa
Satelliet beelden: Gedeeltelijk bewolkt
Zicht: meer dan 10 km
Bewolking: Gedeeltelijk bewolkt 549 m
TNCC 140800Z 12008KT 9999 SCT018 28/23 Q1009 NOSIG
MTPP - Port au Prince Haitië
Gewijzigd: 14-08-2020 09:59
  
  
   Wind: ZO 14.8 km/h
Wind: ZO 14.8 km/h
Temperatuur: 27°C
Gevoelstemperatuur: 29°C
Dauwpunt: 22°C
Vochtigheid: 74%
Barometer: 1012 hPa
Zicht: 9 km
MTPP 140759Z AUTO 13008KT 9000 ////// 27/22 Q1012 A2988 NOSIG
ENVA - Trondheim Noorwegen
Gewijzigd: 14-08-2020 09:50
Grotendeels bewolkt  
Grotendeels bewolkt  
   Wind: Windstil
Wind: Windstil
Temperatuur: 17°C
Dauwpunt: 14°C
Vochtigheid: 83%
Barometer: 1014 hPa
Satelliet beelden: Grotendeels bewolkt
Zicht: meer dan 10 km
Bewolking: Gedeeltelijk bewolkt 335 m,
Grotendeels bewolkt 1219 m
ENVA 140750Z 00000KT 9999 SCT011 BKN040 17/14 Q1014 TEMPO OVC012 RMK WIND 670FT 13003KT
ENBO - Bodø Noorwegen
Gewijzigd: 14-08-2020 09:50
Grotendeels bewolkt  
Grotendeels bewolkt  
   Wind: WZW 31.5 km/h
Wind: WZW 31.5 km/h
Temperatuur: 13°C
Dauwpunt: 11°C
Vochtigheid: 88%
Barometer: 1011 hPa
Satelliet beelden: Grotendeels bewolkt
Zicht: meer dan 10 km
Bewolking: Licht bewolkt 183 m,
Grotendeels bewolkt 518 m
ENBO 140750Z 24017KT 9999 FEW006 BKN017 13/11 Q1011 NOSIG
ETNG - Geilenkirchen Duitsland
Gewijzigd: 14-08-2020 09:50
Helder  
Helder  
   Wind: ZW 14.8 km/h
Wind: ZW 14.8 km/h
Temperatuur: 24°C
Dauwpunt: 17°C
Vochtigheid: 65%
Barometer: 1013 hPa
Zicht: meer dan 10 km
Bewolking: Helder
ETNG 140750Z 22008KT CAVOK 24/17 Q1013 NOSIG
 

Script ontwikkeld door  Saratoga-weather.org Aangepast voor de template door  Weerstation Leuven

U vindt ons ook hier:

Het Weer Aktueel

WOW Nederland KNMI

Vereniging voor Weerkunde en Klimatologie

UK Met Office Weather Observation Website (WOW)

WeatherCloud

Weather Underground

Awekas

Weatherlink IP

HAMweather, WeatherForYou, PWS Weather

Citizen Weather Observer Program (CWOP)

Apparatuur in gebruik:

Hardwareleverancier
Weerhuisje

Weerstation
Vantage Pro2+ UV

Weercomputer's
alix3d2 & wl330n

Weerprogramma's
Smartbedded

Satelliet NOAA's
WRX137 & KX137

Satelliet Eumetsat
Ayecka SR1 & Triax

Bliksemdetectie
Boltek StormTracker

Webleverancier
F-Service

Weerhuisje

Vantage Pro2+ UV

alix3d2 & wl330n

Smartbedded

WRX137 & KX137

Ayecka SR1 & Triax

Boltek StormTracker

F-Service